createdAt,value
2022-11-20T00:00:42.267Z,0.70
2022-11-20T00:03:08.559Z,0.67
2022-11-20T00:05:34.952Z,0.59
2022-11-20T00:08:01.339Z,0.51
2022-11-20T00:10:27.675Z,0.45
2022-11-20T00:12:53.939Z,0.46
2022-11-20T00:15:20.213Z,0.33
2022-11-20T00:17:47.818Z,0.30
2022-11-20T00:20:14.410Z,0.26
2022-11-20T00:22:40.726Z,0.24
2022-11-20T00:25:07.371Z,0.19
2022-11-20T00:27:33.900Z,0.16
2022-11-20T00:30:00.212Z,0.15
2022-11-20T00:32:26.514Z,0.15
2022-11-20T00:34:54.131Z,0.17
2022-11-20T00:37:20.442Z,0.18
2022-11-20T00:39:46.714Z,0.16
2022-11-20T00:42:13.051Z,0.13
2022-11-20T00:44:39.325Z,0.10
2022-11-20T00:47:05.619Z,-0.04
2022-11-20T00:49:31.927Z,-0.13
2022-11-20T00:51:59.520Z,-0.08
2022-11-20T00:54:25.792Z,-0.12
2022-11-20T00:56:53.455Z,-0.23
2022-11-20T00:59:20.178Z,-0.25
2022-11-20T01:01:46.688Z,-0.28
2022-11-20T01:04:12.949Z,-0.38
2022-11-20T01:06:39.846Z,-0.42
2022-11-20T01:09:08.711Z,-0.40
2022-11-20T01:11:36.418Z,-0.36
2022-11-20T01:14:03.886Z,-0.37
2022-11-20T01:16:31.253Z,-0.38
2022-11-20T01:18:59.412Z,-0.35
2022-11-20T01:21:26.738Z,-0.38
2022-11-20T01:23:53.567Z,-0.40
2022-11-20T01:26:22.754Z,-0.34
2022-11-20T01:28:49.466Z,-0.27
2022-11-20T01:31:16.740Z,-0.31
2022-11-20T01:33:43.735Z,-0.33
2022-11-20T01:36:10.859Z,-0.29
2022-11-20T01:38:37.493Z,-0.28
2022-11-20T01:41:04.540Z,-0.28
2022-11-20T01:43:32.531Z,-0.27
2022-11-20T01:46:00.786Z,-0.26
2022-11-20T01:48:29.261Z,-0.22
2022-11-20T01:50:55.862Z,-0.22
2022-11-20T01:53:25.176Z,-0.25
2022-11-20T01:55:54.227Z,-0.26
2022-11-20T01:58:23.234Z,-0.22
2022-11-20T02:00:50.841Z,-0.17
2022-11-20T02:03:18.195Z,-0.17
2022-11-20T02:05:45.994Z,-0.22
2022-11-20T02:08:12.751Z,-0.19
2022-11-20T02:10:39.969Z,-0.21
2022-11-20T02:13:06.446Z,-0.20
2022-11-20T02:15:33.493Z,-0.15
2022-11-20T02:18:01.393Z,-0.09
2022-11-20T02:20:29.072Z,-0.01
2022-11-20T02:22:57.922Z,0.06
2022-11-20T02:25:26.787Z,0.11
2022-11-20T02:27:53.129Z,0.24
2022-11-20T02:30:19.653Z,0.17
2022-11-20T02:32:45.989Z,0.10
2022-11-20T02:35:27.145Z,0.14
2022-11-20T02:37:54.690Z,0.23
2022-11-20T02:40:21.256Z,0.19
2022-11-20T02:42:49.087Z,0.19
2022-11-20T02:45:15.392Z,0.16
2022-11-20T02:47:41.681Z,0.24
2022-11-20T02:50:08.262Z,0.13
2022-11-20T02:52:34.555Z,0.11
2022-11-20T02:55:00.888Z,0.10
2022-11-20T02:57:27.283Z,0.08
2022-11-20T02:59:54.905Z,0.07
2022-11-20T03:02:21.194Z,0.08
2022-11-20T03:04:47.504Z,0.11
2022-11-20T03:07:13.799Z,0.17
2022-11-20T03:09:40.111Z,0.18
2022-11-20T03:12:06.723Z,0.17
2022-11-20T03:14:32.986Z,0.21
2022-11-20T03:17:00.638Z,0.24
2022-11-20T03:19:26.955Z,0.26
2022-11-20T03:21:53.259Z,0.31
2022-11-20T03:24:19.551Z,0.30
2022-11-20T03:26:45.856Z,0.31
2022-11-20T03:29:12.168Z,0.36
2022-11-20T03:31:39.375Z,0.40
2022-11-20T03:34:07.527Z,0.43
2022-11-20T03:36:34.359Z,0.35
2022-11-20T03:39:00.938Z,0.27
2022-11-20T03:41:27.883Z,0.24
2022-11-20T03:43:55.290Z,0.25
2022-11-20T03:46:21.932Z,0.25
2022-11-20T03:48:51.638Z,0.27
2022-11-20T03:51:20.249Z,0.32
2022-11-20T03:53:47.640Z,0.32
2022-11-20T03:56:15.085Z,0.36
2022-11-20T03:58:41.811Z,0.34
2022-11-20T04:01:08.989Z,0.38
2022-11-20T04:03:35.506Z,0.38
2022-11-20T04:06:03.073Z,0.38
2022-11-20T04:08:30.743Z,0.36
2022-11-20T04:10:57.052Z,0.36
2022-11-20T04:13:23.330Z,0.35
2022-11-20T04:15:49.628Z,0.41
2022-11-20T04:18:15.947Z,0.41
2022-11-20T04:20:42.216Z,0.45
2022-11-20T04:23:08.522Z,0.45
2022-11-20T04:25:36.195Z,0.45
2022-11-20T04:28:02.494Z,0.45
2022-11-20T04:30:28.761Z,0.45
2022-11-20T04:32:55.054Z,0.47
2022-11-20T04:35:21.363Z,0.45
2022-11-20T04:37:47.630Z,0.43
2022-11-20T04:40:14.003Z,0.41
2022-11-20T04:42:41.650Z,0.42
2022-11-20T04:45:08.260Z,0.45
2022-11-20T04:47:34.566Z,0.44
2022-11-20T04:50:01.231Z,0.41
2022-11-20T04:52:27.537Z,0.42
2022-11-20T04:54:53.882Z,0.42
2022-11-20T04:57:20.289Z,0.43
2022-11-20T04:59:47.914Z,0.46
2022-11-20T05:02:14.309Z,0.50
2022-11-20T05:04:40.610Z,0.53
2022-11-20T05:07:06.955Z,0.55
2022-11-20T05:09:33.270Z,0.55
2022-11-20T05:11:59.607Z,0.53
2022-11-20T05:14:25.886Z,0.51
2022-11-20T05:16:53.562Z,0.54
2022-11-20T05:19:20.156Z,0.53
2022-11-20T05:21:46.713Z,0.52
2022-11-20T05:24:13.008Z,0.53
2022-11-20T05:26:39.335Z,0.52
2022-11-20T05:29:05.621Z,0.52
2022-11-20T05:31:31.926Z,0.47
2022-11-20T05:33:59.568Z,0.46
2022-11-20T05:36:25.981Z,0.45
2022-11-20T05:38:55.523Z,0.34
2022-11-20T05:41:24.752Z,0.34
2022-11-20T05:43:51.093Z,0.39
2022-11-20T05:46:19.617Z,0.38
2022-11-20T05:48:48.660Z,0.34
2022-11-20T05:51:17.313Z,0.35
2022-11-20T05:53:48.042Z,0.38
2022-11-20T05:56:16.505Z,0.41
2022-11-20T05:58:43.089Z,0.44
2022-11-20T06:01:10.310Z,0.45
2022-11-20T06:03:36.998Z,0.41
2022-11-20T06:06:04.746Z,0.41
2022-11-20T06:08:32.894Z,0.39
2022-11-20T06:10:59.199Z,0.39
2022-11-20T06:13:25.496Z,0.42
2022-11-20T06:15:52.040Z,0.36
2022-11-20T06:18:18.433Z,0.35
2022-11-20T06:20:44.817Z,0.37
2022-11-20T06:23:11.102Z,0.40
2022-11-20T06:25:39.888Z,0.41
2022-11-20T06:28:06.492Z,0.45
2022-11-20T06:30:32.789Z,0.48
2022-11-20T06:32:59.069Z,0.55
2022-11-20T06:35:25.369Z,0.51
2022-11-20T06:37:51.844Z,0.53
2022-11-20T06:40:18.162Z,0.45
2022-11-20T06:42:45.757Z,0.46
2022-11-20T06:45:12.062Z,0.45
2022-11-20T06:47:38.330Z,0.42
2022-11-20T06:50:04.987Z,0.44
2022-11-20T06:52:31.259Z,0.47
2022-11-20T06:54:57.530Z,0.47
2022-11-20T06:57:23.843Z,0.49
2022-11-20T06:59:51.458Z,0.49
2022-11-20T07:02:17.733Z,0.51
2022-11-20T07:04:44.006Z,0.53
2022-11-20T07:07:10.338Z,0.55
2022-11-20T07:09:36.655Z,0.57
2022-11-20T07:12:02.933Z,0.61
2022-11-20T07:14:29.206Z,0.62
2022-11-20T07:16:57.149Z,0.64
2022-11-20T07:19:23.706Z,0.66
2022-11-20T07:21:50.137Z,0.66
2022-11-20T07:24:16.413Z,0.68
2022-11-20T07:26:46.605Z,0.70
2022-11-20T07:29:12.877Z,0.74
2022-11-20T07:31:39.203Z,0.76
2022-11-20T07:34:06.843Z,0.77
2022-11-20T07:36:33.156Z,0.78
2022-11-20T07:38:59.432Z,0.82
2022-11-20T07:41:25.746Z,0.85
2022-11-20T07:43:52.101Z,0.84
2022-11-20T07:46:18.363Z,0.86
2022-11-20T07:48:44.666Z,0.87
2022-11-20T07:51:12.319Z,0.92
2022-11-20T07:53:38.630Z,0.97
2022-11-20T07:56:05.205Z,1.00
2022-11-20T07:58:31.637Z,1.00
2022-11-20T08:00:57.961Z,0.99
2022-11-20T08:03:25.113Z,1.00
2022-11-20T08:05:52.079Z,1.01
2022-11-20T08:08:19.822Z,1.02
2022-11-20T08:10:46.114Z,1.01
2022-11-20T08:13:12.422Z,1.05
2022-11-20T08:15:39.376Z,1.08
2022-11-20T08:20:53.030Z,1.22
2022-11-20T08:23:20.654Z,1.26
2022-11-20T08:25:49.891Z,1.28
2022-11-20T08:28:21.367Z,1.34
2022-11-20T08:30:48.412Z,1.41
2022-11-20T08:33:14.709Z,1.50
2022-11-20T08:35:41.017Z,1.56
2022-11-20T08:38:07.659Z,1.60
2022-11-20T08:40:35.314Z,1.61
2022-11-20T08:43:01.618Z,1.62
2022-11-20T08:45:32.535Z,1.67
2022-11-20T08:48:01.169Z,1.73
2022-11-20T08:50:27.456Z,1.77
2022-11-20T08:52:53.741Z,1.81
2022-11-20T08:55:20.035Z,1.82
2022-11-20T08:57:50.793Z,1.87
2022-11-20T09:00:17.667Z,1.90
2022-11-20T09:02:43.943Z,1.93
2022-11-20T09:05:10.209Z,1.96
2022-11-20T09:07:36.513Z,2.01
2022-11-20T09:10:22.982Z,2.07
2022-11-20T09:12:50.887Z,2.14
2022-11-20T09:15:17.277Z,2.25
2022-11-20T09:17:43.746Z,2.35
2022-11-20T09:20:10.405Z,2.41
2022-11-20T09:22:40.315Z,2.45
2022-11-20T09:25:06.932Z,2.48
2022-11-20T09:27:33.202Z,2.52
2022-11-20T09:30:00.785Z,2.54
2022-11-20T09:32:27.096Z,2.53
2022-11-20T09:34:53.405Z,2.54
2022-11-20T09:37:19.719Z,2.58
2022-11-20T09:39:46.047Z,2.59
2022-11-20T09:42:28.749Z,2.61
2022-11-20T09:45:00.865Z,2.65
2022-11-20T09:47:35.183Z,2.70
2022-11-20T09:50:06.642Z,2.74
2022-11-20T09:52:39.494Z,2.77
2022-11-20T09:55:09.182Z,2.82
2022-11-20T09:57:37.574Z,2.87
2022-11-20T10:00:05.150Z,2.91
2022-11-20T10:02:40.019Z,2.96
2022-11-20T10:05:11.523Z,3.01
2022-11-20T10:07:42.338Z,3.05
2022-11-20T10:10:15.245Z,3.07
2022-11-20T10:12:48.904Z,3.09
2022-11-20T10:15:23.393Z,3.14
2022-11-20T10:17:59.777Z,3.18
2022-11-20T10:20:30.648Z,3.22
2022-11-20T10:23:14.914Z,3.25
2022-11-20T10:25:44.899Z,3.27
2022-11-20T10:28:16.967Z,3.24
2022-11-20T10:30:44.503Z,3.29
2022-11-20T10:33:16.544Z,3.35
2022-11-20T10:35:44.889Z,3.41
2022-11-20T10:38:15.743Z,3.44
2022-11-20T10:40:44.034Z,3.49
2022-11-20T10:43:13.156Z,3.54
2022-11-20T10:45:46.505Z,3.56
2022-11-20T10:48:16.406Z,3.58
2022-11-20T10:50:50.599Z,3.62
2022-11-20T10:53:20.482Z,3.61
2022-11-20T10:55:51.531Z,3.64
2022-11-20T10:58:20.377Z,3.60
2022-11-20T11:00:46.712Z,3.64
2022-11-20T11:03:21.367Z,3.66
2022-11-20T11:05:50.924Z,3.65
2022-11-20T11:08:18.338Z,3.67
2022-11-20T11:10:47.558Z,3.72
2022-11-20T11:13:23.878Z,3.73
2022-11-20T11:15:50.472Z,3.76
2022-11-20T11:18:25.511Z,3.78
2022-11-20T11:20:52.249Z,3.80
2022-11-20T11:23:27.414Z,3.83
2022-11-20T11:25:57.797Z,3.85
2022-11-20T11:28:25.358Z,3.88
2022-11-20T11:30:52.022Z,3.90
2022-11-20T11:33:20.015Z,3.93
2022-11-20T11:35:51.395Z,3.95
2022-11-20T11:38:22.101Z,3.96
2022-11-20T11:40:48.408Z,3.95
2022-11-20T11:43:21.859Z,3.95
2022-11-20T11:45:52.703Z,3.93
2022-11-20T11:48:19.043Z,3.92
2022-11-20T11:50:50.990Z,3.93
2022-11-20T11:53:18.546Z,3.93
2022-11-20T11:55:46.625Z,3.93
2022-11-20T11:58:17.317Z,3.94
2022-11-20T12:00:50.607Z,3.95
2022-11-20T12:03:18.769Z,3.96
2022-11-20T12:05:47.938Z,4.00
2022-11-20T12:08:18.235Z,4.03
2022-11-20T12:10:47.087Z,4.08
2022-11-20T12:13:19.187Z,4.13
2022-11-20T12:15:47.134Z,4.18
2022-11-20T12:18:16.871Z,4.23
2022-11-20T12:20:47.685Z,4.27
2022-11-20T12:23:18.931Z,4.28
2022-11-20T12:25:47.012Z,4.31
2022-11-20T12:28:19.700Z,4.33
2022-11-20T12:30:51.108Z,4.33
2022-11-20T12:33:28.203Z,4.34
2022-11-20T12:36:05.778Z,4.37
2022-11-20T12:38:59.045Z,4.39
2022-11-20T12:41:34.282Z,4.43
2022-11-20T12:44:05.934Z,4.43
2022-11-20T12:46:37.536Z,4.47
2022-11-20T12:49:10.010Z,4.56
2022-11-20T12:51:44.675Z,4.61
2022-11-20T12:54:37.754Z,4.64
2022-11-20T12:57:06.891Z,4.67
2022-11-20T12:59:42.047Z,4.69
2022-11-20T13:02:15.517Z,4.69
2022-11-20T13:04:49.722Z,4.69
2022-11-20T13:07:17.085Z,4.70
2022-11-20T13:09:46.914Z,4.71
2022-11-20T13:12:16.342Z,4.70
2022-11-20T13:14:46.848Z,4.73
2022-11-20T13:17:16.941Z,4.74
2022-11-20T13:19:47.275Z,4.74
2022-11-20T13:22:13.559Z,4.72
2022-11-20T13:24:39.888Z,4.74
2022-11-20T13:27:18.857Z,4.72
2022-11-20T13:29:45.834Z,4.74
2022-11-20T13:32:15.079Z,4.74
2022-11-20T13:34:51.878Z,4.78
2022-11-20T13:37:25.854Z,4.80
2022-11-20T13:39:52.213Z,4.84
2022-11-20T13:42:27.467Z,4.88
2022-11-20T13:44:55.326Z,4.90
2022-11-20T13:47:22.261Z,4.92
2022-11-20T13:49:48.907Z,4.93
2022-11-20T13:52:29.388Z,4.93
2022-11-20T13:54:59.393Z,4.95
2022-11-20T13:57:36.525Z,4.96
2022-11-20T14:00:10.663Z,4.96
2022-11-20T14:02:37.102Z,4.98
2022-11-20T14:05:05.129Z,5.00
2022-11-20T14:07:33.318Z,5.00
2022-11-20T14:09:59.673Z,5.00
2022-11-20T14:12:29.026Z,5.00
2022-11-20T14:14:57.044Z,5.01
2022-11-20T14:17:24.996Z,5.01
2022-11-20T14:19:52.083Z,5.02
2022-11-20T14:22:19.906Z,5.01
2022-11-20T14:24:46.310Z,5.00
2022-11-20T14:27:13.887Z,5.01
2022-11-20T14:29:40.215Z,5.01
2022-11-20T14:32:09.740Z,5.03
2022-11-20T14:34:38.758Z,5.03
2022-11-20T14:37:06.399Z,5.03
2022-11-20T14:39:34.047Z,5.05
2022-11-20T14:42:00.399Z,5.04
2022-11-20T14:44:28.667Z,5.04
2022-11-20T14:46:56.078Z,5.06
2022-11-20T14:49:24.164Z,5.08
2022-11-20T14:51:59.340Z,5.07
2022-11-20T14:54:25.867Z,5.09
2022-11-20T14:56:55.337Z,5.08
2022-11-20T14:59:23.282Z,5.08
2022-11-20T15:01:55.657Z,5.09
2022-11-20T15:04:22.312Z,5.10
2022-11-20T15:06:52.470Z,5.12
2022-11-20T15:09:18.789Z,5.13
2022-11-20T15:11:53.028Z,5.15
2022-11-20T15:14:19.410Z,5.15
2022-11-20T15:16:45.733Z,5.17
2022-11-20T15:19:17.181Z,5.16
2022-11-20T15:21:43.486Z,5.17
2022-11-20T15:24:11.257Z,5.20
2022-11-20T15:26:38.737Z,5.20
2022-11-20T15:29:05.006Z,5.20
2022-11-20T15:31:31.318Z,5.22
2022-11-20T15:33:59.335Z,5.22
2022-11-20T15:36:25.635Z,5.26
2022-11-20T15:38:52.071Z,5.27
2022-11-20T15:41:19.693Z,5.30
2022-11-20T15:43:45.984Z,5.32
2022-11-20T15:46:13.728Z,5.33
2022-11-20T15:48:46.374Z,5.37
2022-11-20T15:51:22.241Z,5.37
2022-11-20T15:53:48.510Z,5.41
2022-11-20T15:56:15.196Z,5.40
2022-11-20T15:58:42.942Z,5.43
2022-11-20T16:01:11.093Z,5.45
2022-11-20T16:03:37.400Z,5.46
2022-11-20T16:06:03.743Z,5.48
2022-11-20T16:08:30.038Z,5.49
2022-11-20T16:10:56.364Z,5.50
2022-11-20T16:13:22.695Z,5.50
2022-11-20T16:15:53.551Z,5.51
2022-11-20T16:18:20.718Z,5.50
2022-11-20T16:20:47.903Z,5.51
2022-11-20T16:23:14.529Z,5.51
2022-11-20T16:25:40.786Z,5.53
2022-11-20T16:28:07.089Z,5.56
2022-11-20T16:30:33.795Z,5.57
2022-11-20T16:33:01.819Z,5.59
2022-11-20T16:35:28.191Z,5.61
2022-11-20T16:37:54.739Z,5.63
2022-11-20T16:40:21.134Z,5.65
2022-11-20T16:42:47.458Z,5.67
2022-11-20T16:45:13.870Z,5.69
2022-11-20T16:47:40.265Z,5.72
2022-11-20T16:50:08.771Z,5.76
2022-11-20T16:52:35.173Z,5.78
2022-11-20T16:55:01.480Z,5.80
2022-11-20T16:57:28.243Z,5.82
2022-11-20T16:59:57.747Z,5.84
2022-11-20T17:02:26.608Z,5.84
2022-11-20T17:04:53.174Z,5.86
2022-11-20T17:07:20.855Z,5.87
2022-11-20T17:09:48.121Z,5.90
2022-11-20T17:12:14.465Z,5.93
2022-11-20T17:14:40.754Z,5.92
2022-11-20T17:17:07.052Z,5.96
2022-11-20T17:19:33.387Z,6.00
2022-11-20T17:22:00.543Z,6.00
2022-11-20T17:24:31.864Z,6.05
2022-11-20T17:26:58.615Z,6.06
2022-11-20T17:29:24.945Z,6.08
2022-11-20T17:31:51.234Z,6.09
2022-11-20T17:34:17.613Z,6.13
2022-11-20T17:36:45.473Z,6.15
2022-11-20T17:39:12.999Z,6.18
2022-11-20T17:41:40.904Z,6.22
2022-11-20T17:44:09.326Z,6.26
2022-11-20T17:46:35.628Z,6.36
2022-11-20T17:49:04.426Z,6.43
2022-11-20T17:51:32.048Z,6.47
2022-11-20T17:53:59.190Z,6.60
2022-11-20T17:56:25.669Z,6.67
2022-11-20T17:58:53.330Z,6.72
2022-11-20T18:01:20.134Z,6.80
2022-11-20T18:03:46.917Z,6.91
2022-11-20T18:06:13.908Z,7.01
2022-11-20T18:08:40.274Z,7.08
2022-11-20T18:11:10.073Z,7.13
2022-11-20T18:13:36.684Z,7.25
2022-11-20T18:16:07.570Z,7.29
2022-11-20T18:18:33.853Z,7.39
2022-11-20T18:21:00.127Z,7.45
2022-11-20T18:23:26.442Z,7.49
2022-11-20T18:25:52.755Z,7.49
2022-11-20T18:28:19.063Z,7.58
2022-11-20T18:30:45.388Z,7.51
2022-11-20T18:33:13.008Z,7.49
2022-11-20T18:35:39.637Z,7.47
2022-11-20T18:38:05.975Z,7.47
2022-11-20T18:40:34.355Z,7.43
2022-11-20T18:43:00.635Z,7.48
2022-11-20T18:45:27.046Z,7.49
2022-11-20T18:47:53.360Z,7.50
2022-11-20T18:50:21.747Z,7.52
2022-11-20T18:52:48.062Z,7.50
2022-11-20T18:55:14.379Z,7.47
2022-11-20T18:57:40.779Z,7.47
2022-11-20T19:00:09.625Z,7.48
2022-11-20T19:02:40.872Z,7.47
2022-11-20T19:05:08.592Z,7.42
2022-11-20T19:07:36.285Z,7.41
2022-11-20T19:10:04.175Z,7.47
2022-11-20T19:12:31.007Z,7.40
2022-11-20T19:15:00.233Z,7.40
2022-11-20T19:17:26.562Z,7.39
2022-11-20T19:19:55.476Z,7.38
2022-11-20T19:22:21.843Z,7.39
2022-11-20T19:24:49.786Z,7.33
2022-11-20T19:27:16.184Z,7.32
2022-11-20T19:29:42.500Z,7.38
2022-11-20T19:32:09.323Z,7.35
2022-11-20T19:34:35.678Z,7.32
2022-11-20T19:37:02.047Z,7.35
2022-11-20T19:39:28.454Z,7.36
2022-11-20T19:41:56.158Z,7.30
2022-11-20T19:44:22.738Z,7.31
2022-11-20T19:46:49.356Z,7.35
2022-11-20T19:49:15.745Z,7.37
2022-11-20T19:51:45.342Z,7.36
2022-11-20T19:54:11.968Z,7.32
2022-11-20T19:56:38.297Z,7.28
2022-11-20T19:59:07.115Z,7.26
2022-11-20T20:01:33.949Z,7.26
2022-11-20T20:04:00.797Z,7.26
2022-11-20T20:06:29.449Z,7.25
2022-11-20T20:08:56.241Z,7.20
2022-11-20T20:11:24.000Z,7.25
2022-11-20T20:13:50.713Z,7.22
2022-11-20T20:16:19.461Z,7.23
2022-11-20T20:18:46.151Z,7.27
2022-11-20T20:21:13.256Z,7.29
2022-11-20T20:23:40.193Z,7.26
2022-11-20T20:26:07.381Z,7.21
2022-11-20T20:28:34.376Z,7.21
2022-11-20T20:31:06.047Z,7.15
2022-11-20T20:33:33.815Z,7.13
2022-11-20T20:36:00.166Z,7.09
2022-11-20T20:38:26.826Z,7.08
2022-11-20T20:40:54.497Z,7.05
2022-11-20T20:43:20.841Z,7.03
2022-11-20T20:45:47.756Z,7.00
2022-11-20T20:48:14.550Z,6.99
2022-11-20T20:50:42.495Z,7.01
2022-11-20T20:53:08.975Z,6.95
2022-11-20T20:55:35.422Z,7.04
2022-11-20T20:58:01.728Z,7.00
2022-11-20T21:00:28.086Z,7.00
2022-11-20T21:02:54.423Z,7.01
2022-11-20T21:05:20.824Z,7.04
2022-11-20T21:07:48.534Z,6.97
2022-11-20T21:10:16.948Z,7.00
2022-11-20T21:12:46.218Z,6.97
2022-11-20T21:15:12.546Z,6.85
2022-11-20T21:17:38.845Z,6.87
2022-11-20T21:20:05.643Z,6.86
2022-11-20T21:22:36.354Z,6.90
2022-11-20T21:25:04.434Z,6.87
2022-11-20T21:27:30.726Z,6.85
2022-11-20T21:29:57.009Z,6.86
2022-11-20T21:32:23.290Z,6.94
2022-11-20T21:34:49.608Z,6.83
2022-11-20T21:37:16.245Z,6.84
2022-11-20T21:39:42.499Z,6.83
2022-11-20T21:42:10.119Z,6.83
2022-11-20T21:44:36.450Z,6.79
2022-11-20T21:47:02.739Z,6.74
2022-11-20T21:49:29.013Z,6.71
2022-11-20T21:51:55.296Z,6.71
2022-11-20T21:54:21.838Z,6.72
2022-11-20T21:56:48.384Z,6.69
2022-11-20T21:59:16.018Z,6.67
2022-11-20T22:01:42.424Z,6.66
2022-11-20T22:04:12.851Z,6.70
2022-11-20T22:06:39.178Z,6.69
2022-11-20T22:09:05.489Z,6.68
2022-11-20T22:11:31.782Z,6.68
2022-11-20T22:13:58.111Z,6.67
2022-11-20T22:16:25.994Z,6.67
2022-11-20T22:18:53.070Z,6.68
2022-11-20T22:21:20.586Z,6.72
2022-11-20T22:23:47.047Z,6.66
2022-11-20T22:26:14.521Z,6.64
2022-11-20T22:28:41.083Z,6.59
2022-11-20T22:31:08.059Z,6.56
2022-11-20T22:33:36.752Z,6.55
2022-11-20T22:36:04.029Z,6.55
2022-11-20T22:38:32.175Z,6.58
2022-11-20T22:41:01.738Z,6.58
2022-11-20T22:43:28.020Z,6.60
2022-11-20T22:45:54.278Z,6.58
2022-11-20T22:48:20.542Z,6.58
2022-11-20T22:50:48.170Z,6.61
2022-11-20T22:53:14.438Z,6.60
2022-11-20T22:55:40.719Z,6.62
2022-11-20T22:58:07.011Z,6.58
2022-11-20T23:03:36.156Z,6.77
2022-11-20T23:06:03.945Z,6.75
2022-11-20T23:08:30.823Z,6.66
2022-11-20T23:11:00.241Z,6.67
2022-11-20T23:13:26.834Z,6.67
2022-11-20T23:15:53.142Z,6.62
2022-11-20T23:18:19.454Z,6.62
2022-11-20T23:20:45.755Z,6.59
2022-11-20T23:23:13.425Z,6.62
2022-11-20T23:25:39.723Z,6.59
2022-11-20T23:28:06.046Z,6.56
2022-11-20T23:30:32.334Z,6.58
2022-11-20T23:32:58.616Z,6.60
2022-11-20T23:35:24.902Z,6.60
2022-11-20T23:37:51.194Z,6.69
2022-11-20T23:40:18.858Z,6.74
2022-11-20T23:42:45.161Z,6.99
2022-11-20T23:45:11.472Z,6.94
2022-11-20T23:47:37.791Z,6.92
2022-11-20T23:50:04.378Z,6.99
2022-11-20T23:52:30.666Z,6.93
2022-11-20T23:54:56.936Z,6.78
2022-11-20T23:57:24.557Z,6.76
2022-11-20T23:59:50.821Z,6.79
